Kirkville, IA (52566)

10:56 AM CST on February 09, 2016 (GMT -0600)
Ottumwa Industrial | | Change Station
CLOSE
Current Station
Airport
Location: Ottumwa,
Elevation: 843 ft
Nearby Weather Stations

Elev 843 ft 41.11 °N, 92.45 °W | Updated 3 minutes ago

Light Snow
Light Snow
13 °F
Feels Like -7 °F
N
25
Wind Variable Wind from NW

Today
High -- | Low -- °F
--% Chance of Precip.
Yesterday
High -- | Low -- °F
Precip. -- in
Pressure 30.14 in
Visibility 3.0 miles
Clouds Overcast 2100 ft
Windchill -7 °F
Dew Point 6 °F
Humidity 74%
Rainfall 0.00 in
Snow Depth Not available.
7:12 AM 5:36 PM
New Moon, 2% visible
METAR KOTM 091653Z AUTO 32022KT 3SM -SN OVC021 M11/M14 A3009 RMK AO2 PK WND 32030/1630 SLP204 P0000 T11061144
Pressure 30.14 in
Visibility 3.0 miles
Clouds Overcast 2100 ft
Windchill -7 °F
Dew Point 6 °F
Humidity 74%
Rainfall 0.00 in
Snow Depth Not available.
7:12 AM 5:36 PM
New Moon, 2% visible
METAR KOTM 091653Z AUTO 32022KT 3SM -SN OVC021 M11/M14 A3009 RMK AO2 PK WND 32030/1630 SLP204 P0000 T11061144

10-Day Weather Forecast

Almanac

Astronomy

Feb. 09, 2016 Rise Set
Actual Time
Civil Twilight
Nautical Twilight
Astronomical Twilight
Moon
Length of Visible Light
Length of Day
Tomorrow will be .
, % of the Moon is Illuminated

Today's Extremes

State Highs State Lows

Community

WunderPhotos

Upload Photos

1,891,631 photos uploaded!

WunderBlog® & News

Nearby

Air Quality

  Air Quality AQ Index Pollutant
Not available.

Snow Depth

Station Depth Elevation

Earthquake Activity

City Distance Mag. Time & Date
Minimum magnitude displayed is 2.5.

Coastal Water Temperatures

Place Temperature

Stations

Nearby Weather Stations

Station Location Temp. Windchill Dew Point Humidity Wind Precip. Elev Updated Type
                   

Watches & Warnings

There are currently no watches in effect.